Time;durP1;ratioP1;P1;durP2;ratioP2;P2;SDS_P1;SDS_P2;PMS_P1;PMS_P2;Temp;Humidity;BMP_temperature;BMP_pressure;BME280_temperature;BME280_humidity;BME280_pressure;Samples;Min_cycle;Max_cycle;Signal;HPM_P1;HPM_P2
2023/04/02 00:01:18;;;;;;;0.00;0.00;;;;;;;11.46;68.03;101770.50;7355205;19;20439;-60
2023/04/02 00:03:43;;;;;;;0.00;0.00;;;;;;;11.42;68.03;101772.25;7361556;19;20003;-60
2023/04/02 00:06:33;;;;;;;0.10;0.10;;;;;;;11.43;67.86;101792.28;7359377;19;20007;-60
2023/04/02 00:09:12;;;;;;;0.10;0.10;;;;;;;11.27;68.25;101777.63;7258159;19;2004316;-60
2023/04/02 00:11:43;;;;;;;0.00;0.00;;;;;;;11.36;68.26;101806.31;7359314;19;20010;-59
2023/04/02 00:14:22;;;;;;;0.10;0.10;;;;;;;11.33;68.08;101803.72;7358055;19;20006;-60
2023/04/02 00:16:49;;;;;;;0.00;0.00;;;;;;;11.28;68.29;101806.38;7361325;19;20018;-60
2023/04/02 00:19:22;;;;;;;0.10;0.10;;;;;;;11.23;68.18;101797.69;7361419;19;20011;-60
2023/04/02 00:21:48;;;;;;;0.00;0.00;;;;;;;11.24;68.63;101811.63;7361896;19;20657;-60
2023/04/02 00:24:18;;;;;;;0.10;0.10;;;;;;;11.24;68.58;101804.66;7357264;19;20002;-60
2023/04/02 00:26:46;;;;;;;0.10;0.10;;;;;;;11.24;68.58;101803.78;7356205;19;20976;-60
2023/04/02 00:29:13;;;;;;;0.10;0.10;;;;;;;11.24;68.80;101809.88;7358262;19;20026;-60
2023/04/02 00:31:46;;;;;;;0.10;0.10;;;;;;;11.26;69.14;101802.91;7361078;19;20006;-60
2023/04/02 00:34:32;;;;;;;0.00;0.00;;;;;;;11.30;68.79;101788.03;7356674;19;20133;-60
2023/04/02 00:36:58;;;;;;;0.00;0.00;;;;;;;11.28;69.15;101789.81;7360644;19;20017;-60
2023/04/02 00:39:30;;;;;;;0.10;0.10;;;;;;;11.31;68.72;101800.25;7356816;19;20014;-60
2023/04/02 00:42:06;;;;;;;0.00;0.00;;;;;;;11.31;69.17;101832.50;7361236;19;20017;-60
2023/04/02 00:44:37;;;;;;;0.00;0.00;;;;;;;11.31;69.10;101832.50;7355322;19;20027;-60
2023/04/02 00:47:15;;;;;;;0.00;0.00;;;;;;;11.24;69.35;101835.16;7357518;19;20029;-59
2023/04/02 00:49:42;;;;;;;0.10;0.10;;;;;;;11.11;69.09;101822.19;7357215;19;20010;-60
2023/04/02 00:52:12;;;;;;;0.00;0.00;;;;;;;11.32;68.63;101864.75;7360445;19;20026;-60
2023/04/02 00:54:46;;;;;;;0.00;0.00;;;;;;;11.29;68.88;101865.63;7352266;19;21228;-60
2023/04/02 00:57:24;;;;;;;0.00;0.00;;;;;;;11.27;68.53;101850.84;7357627;19;20017;-59
2023/04/02 01:00:14;;;;;;;0.10;0.10;;;;;;;11.27;68.84;101850.84;7356224;19;20010;-60
2023/04/02 01:02:41;;;;;;;0.00;0.00;;;;;;;11.21;69.13;101841.28;7355874;19;20025;-60
2023/04/02 01:05:16;;;;;;;0.00;0.00;;;;;;;11.22;69.65;101852.63;7359085;19;20035;-60
2023/04/02 01:07:53;;;;;;;0.10;0.10;;;;;;;11.23;69.31;101863.06;7356091;19;20014;-60
2023/04/02 01:10:41;;;;;;;0.08;0.08;;;;;;;11.24;69.42;101866.53;7359711;19;20019;-60
2023/04/02 01:13:25;;;;;;;0.00;0.00;;;;;;;11.26;69.39;101872.66;7355852;19;20014;-60
2023/04/02 01:15:59;;;;;;;0.00;0.00;;;;;;;11.27;69.52;101874.38;7356184;19;20022;-60
2023/04/02 01:18:45;;;;;;;0.10;0.10;;;;;;;11.29;69.06;101864.75;7356773;19;20014;-60
2023/04/02 01:21:21;;;;;;;0.00;0.00;;;;;;;11.28;69.35;101857.81;7353905;19;20700;-60
2023/04/02 01:24:06;;;;;;;0.00;0.00;;;;;;;11.30;69.40;101861.25;7357080;19;20035;-60
2023/04/02 01:27:07;;;;;;;0.00;0.00;;;;;;;11.30;68.79;101869.09;7356484;19;20015;-60
2023/04/02 01:29:44;;;;;;;0.00;0.00;;;;;;;11.29;68.96;101865.63;7256108;19;2004039;-60
2023/04/02 01:32:14;;;;;;;0.10;0.10;;;;;;;11.29;68.88;101859.53;7357889;19;20479;-60
2023/04/02 01:34:44;;;;;;;0.08;0.08;;;;;;;11.26;69.31;101860.44;7356781;19;20429;-60
2023/04/02 01:37:16;;;;;;;0.00;0.00;;;;;;;11.27;69.29;101871.75;7357124;19;20010;-60
2023/04/02 01:39:58;;;;;;;0.10;0.10;;;;;;;11.28;69.27;101863.91;7358484;19;20062;-59
2023/04/02 01:42:56;;;;;;;0.10;0.10;;;;;;;11.28;69.44;101852.56;7355573;19;20018;-60
2023/04/02 01:45:23;;;;;;;0.10;0.10;;;;;;;11.26;69.31;101851.72;7256450;19;2004580;-60
2023/04/02 01:47:50;;;;;;;0.00;0.00;;;;;;;11.26;69.39;101854.34;7358538;19;20476;-60
2023/04/02 01:50:18;;;;;;;0.10;0.10;;;;;;;11.28;69.10;101858.66;7356528;19;20351;-60
2023/04/02 01:52:47;;;;;;;0.05;0.05;;;;;;;11.27;69.07;101863.91;7354403;19;20021;-60
2023/04/02 01:55:16;;;;;;;0.05;0.05;;;;;;;11.25;68.81;101876.97;7356632;19;20029;-59
2023/04/02 01:57:44;;;;;;;0.00;0.00;;;;;;;11.18;68.96;101878.78;7348392;19;20040;-60
2023/04/02 02:00:16;;;;;;;0.10;0.10;;;;;;;11.21;68.79;101890.09;7354927;19;20011;-59
2023/04/02 02:02:45;;;;;;;0.00;0.00;;;;;;;11.12;68.88;101884.03;7355972;19;20054;-60
2023/04/02 02:05:17;;;;;;;0.10;0.10;;;;;;;11.24;69.12;101895.31;7354480;19;20014;-60
2023/04/02 02:07:43;;;;;;;0.00;0.00;;;;;;;11.22;69.10;101897.06;7350384;19;20844;-60
2023/04/02 02:10:15;;;;;;;0.10;0.10;;;;;;;11.24;69.31;101897.91;7355468;19;20007;-60
2023/04/02 02:12:43;;;;;;;0.10;0.10;;;;;;;11.22;68.77;101907.53;7352051;19;20375;-60
2023/04/02 02:15:15;;;;;;;0.10;0.10;;;;;;;11.17;68.87;101897.97;7354833;19;20038;-60
2023/04/02 02:17:41;;;;;;;0.00;0.00;;;;;;;11.20;69.27;101917.09;7353723;19;20018;-60
2023/04/02 02:20:09;;;;;;;0.00;0.00;;;;;;;11.20;69.35;101922.34;7355208;19;20011;-60
2023/04/02 02:22:42;;;;;;;;;;;;;;;11.22;68.83;101926.69;7355637;19;20035;-60
2023/04/02 02:25:20;;;;;;;0.05;0.05;;;;;;;11.22;68.87;101936.28;7354671;19;19914;-59
2023/04/02 02:27:55;;;;;;;0.05;0.05;;;;;;;11.17;69.02;101937.19;7352890;19;20074;-60
2023/04/02 02:30:31;;;;;;;0.00;0.00;;;;;;;11.12;69.15;101925.88;7348034;19;20010;-60
2023/04/02 02:33:26;;;;;;;0.00;0.00;;;;;;;11.18;69.29;101940.66;7353152;19;20015;-60
2023/04/02 02:36:12;;;;;;;0.10;0.10;;;;;;;11.16;69.05;101952.88;7253537;19;2004082;-60
2023/04/02 02:38:50;;;;;;;0.10;0.10;;;;;;;11.19;69.25;101963.31;7246565;19;2004449;-60
2023/04/02 02:41:23;;;;;;;0.00;0.00;;;;;;;10.86;69.35;101904.22;7354685;19;20014;-60
2023/04/02 02:44:02;;;;;;;0.08;0.08;;;;;;;11.05;69.16;101932.03;7353240;19;20908;-60
2023/04/02 02:46:29;;;;;;;0.00;0.00;;;;;;;11.15;69.27;101956.34;7352155;19;20014;-60
2023/04/02 02:48:56;;;;;;;0.03;0.03;;;;;;;11.18;69.73;101970.28;7343869;19;20037;-60
2023/04/02 02:51:29;;;;;;;0.08;0.08;;;;;;;11.22;69.68;101967.66;7353807;19;20013;-60
2023/04/02 02:54:02;;;;;;;0.10;0.10;;;;;;;11.21;69.74;101976.38;7352156;19;20025;-60
2023/04/02 02:56:30;;;;;;;0.00;0.00;;;;;;;11.18;69.48;101967.66;7349113;19;20829;-60
2023/04/02 02:58:55;;;;;;;0.05;0.05;;;;;;;11.19;69.85;101968.53;7351036;19;20569;-60
2023/04/02 03:01:21;;;;;;;0.00;0.00;;;;;;;11.19;69.89;101971.16;7346328;19;20010;-60
2023/04/02 03:03:51;;;;;;;0.10;0.10;;;;;;;11.16;69.90;101958.97;7347559;19;20144;-59
2023/04/02 03:06:19;;;;;;;0.00;0.00;;;;;;;11.06;69.86;101941.59;7332261;19;20007;-60
2023/04/02 03:09:08;;;;;;;0.00;0.00;;;;;;;11.18;69.96;101959.81;7350281;19;20014;-60
2023/04/02 03:12:03;;;;;;;0.08;0.08;;;;;;;11.20;69.69;101972.88;7348612;19;20482;-60
2023/04/02 03:14:42;;;;;;;0.00;0.00;;;;;;;11.20;69.59;101979.84;7246514;19;2004156;-60
2023/04/02 03:17:20;;;;;;;0.00;0.00;;;;;;;11.17;69.35;101981.63;7351788;19;20425;-60
2023/04/02 03:20:05;;;;;;;0.10;0.10;;;;;;;11.13;69.56;101987.75;7334068;19;20066;-60
2023/04/02 03:22:37;;;;;;;0.03;0.03;;;;;;;11.13;69.69;101990.34;7348957;19;20011;-60
2023/04/02 03:25:17;;;;;;;0.03;0.03;;;;;;;11.13;69.54;101992.97;7352264;19;20035;-60
2023/04/02 03:27:46;;;;;;;0.10;0.10;;;;;;;11.07;69.91;101995.59;7351673;19;20017;-59
2023/04/02 03:30:20;;;;;;;0.10;0.10;;;;;;;11.09;69.84;101999.06;7360380;19;20127;-60
2023/04/02 03:32:50;;;;;;;0.00;0.00;;;;;;;11.06;70.09;102004.34;7354549;19;20953;-60
2023/04/02 03:35:31;;;;;;;0.00;0.00;;;;;;;11.06;69.81;102009.56;7358896;19;20022;-60
2023/04/02 03:38:05;;;;;;;0.10;0.10;;;;;;;11.06;70.30;102020.03;7358569;19;20014;-60
2023/04/02 03:40:37;;;;;;;0.00;0.00;;;;;;;11.04;70.04;102013.91;7358213;19;20006;-59
2023/04/02 03:43:20;;;;;;;0.00;0.00;;;;;;;11.07;69.96;102020.88;7360182;19;20025;-60
2023/04/02 03:45:52;;;;;;;0.00;0.00;;;;;;;11.07;70.21;102018.28;7355499;19;20014;-60
2023/04/02 03:48:33;;;;;;;0.10;0.10;;;;;;;11.07;70.43;102016.53;7358370;19;20022;-60
2023/04/02 03:51:05;;;;;;;0.10;0.10;;;;;;;11.07;70.61;102021.75;7358526;19;20047;-60
2023/04/02 03:53:31;;;;;;;0.10;0.10;;;;;;;11.06;70.62;102024.38;7356974;19;20013;-60
2023/04/02 03:55:58;;;;;;;0.00;0.00;;;;;;;11.08;70.45;102031.31;7359890;19;21472;-60
2023/04/02 03:58:35;;;;;;;0.10;0.10;;;;;;;11.03;70.32;102016.53;7356919;19;20017;-60
2023/04/02 04:01:30;;;;;;;0.00;0.00;;;;;;;11.08;70.42;102028.72;7356091;19;20042;-60
2023/04/02 04:04:04;;;;;;;0.10;0.10;;;;;;;11.08;70.00;102030.47;7253171;19;2004429;-60
2023/04/02 04:06:33;;;;;;;0.10;0.10;;;;;;;11.06;70.33;102033.09;7356973;19;20724;-60
2023/04/02 04:09:32;;;;;;;0.10;0.10;;;;;;;11.08;70.24;102031.31;7358420;19;20014;-60
2023/04/02 04:12:06;;;;;;;0.03;0.03;;;;;;;11.07;70.28;102037.44;7254957;19;2004463;-60
2023/04/02 04:14:36;;;;;;;0.10;0.10;;;;;;;10.94;70.66;102008.72;7353559;19;20017;-60
2023/04/02 04:17:15;;;;;;;0.10;0.10;;;;;;;11.02;70.59;102028.75;7356199;19;20021;-60
2023/04/02 04:20:06;;;;;;;0.10;0.10;;;;;;;11.02;70.44;102028.75;7356534;19;20022;-60
2023/04/02 04:22:32;;;;;;;0.00;0.00;;;;;;;10.86;70.60;102007.00;7252289;19;2004576;-60
2023/04/02 04:25:01;;;;;;;0.10;0.10;;;;;;;11.00;70.56;102025.28;7352365;19;20026;-60
2023/04/02 04:27:36;;;;;;;0.10;0.10;;;;;;;10.89;70.66;102006.97;7358965;19;20023;-60
2023/04/02 04:30:09;;;;;;;0.00;0.00;;;;;;;10.96;70.45;102023.53;7352836;19;20010;-60
2023/04/02 04:32:48;;;;;;;0.10;0.10;;;;;;;10.97;70.74;102034.84;7357477;19;20006;-60
2023/04/02 04:35:33;;;;;;;0.08;0.08;;;;;;;10.97;70.63;102032.25;7355706;19;20471;-60
2023/04/02 04:38:06;;;;;;;0.10;0.10;;;;;;;10.93;70.90;102044.44;7354765;19;20010;-59
2023/04/02 04:40:41;;;;;;;0.00;0.00;;;;;;;10.94;70.64;102045.31;7353767;19;20022;-60
2023/04/02 04:43:17;;;;;;;0.00;0.00;;;;;;;10.86;70.67;102037.50;7351330;19;20011;-60
2023/04/02 04:45:58;;;;;;;0.10;0.10;;;;;;;10.91;70.81;102051.44;7351826;19;20880;-60
2023/04/02 04:48:31;;;;;;;0.00;0.00;;;;;;;10.90;70.39;102047.09;7353226;19;20015;-60
2023/04/02 04:51:09;;;;;;;0.00;0.00;;;;;;;10.79;70.75;102031.41;7357208;19;20109;-59
2023/04/02 04:53:49;;;;;;;0.00;0.00;;;;;;;10.89;70.74;102053.16;7354079;19;20048;-60
2023/04/02 04:56:20;;;;;;;0.10;0.10;;;;;;;10.87;70.97;102049.69;7356880;19;20046;-59
2023/04/02 04:58:51;;;;;;;0.05;0.05;;;;;;;10.87;70.83;102052.31;7356537;19;20010;-60
2023/04/02 05:01:36;;;;;;;0.00;0.00;;;;;;;10.87;70.63;102058.41;7357597;19;20034;-60
2023/04/02 05:04:10;;;;;;;0.00;0.00;;;;;;;10.85;71.09;102061.91;7356601;19;20047;-60
2023/04/02 05:07:01;;;;;;;0.08;0.08;;;;;;;10.83;70.52;102071.47;7355323;19;20729;-60
2023/04/02 05:09:39;;;;;;;0.10;0.10;;;;;;;10.82;71.09;102074.97;7255458;19;2004269;-60
2023/04/02 05:12:42;;;;;;;0.00;0.00;;;;;;;10.83;70.79;102079.31;7354917;19;20016;-60
2023/04/02 05:15:29;;;;;;;0.10;0.10;;;;;;;10.83;70.57;102074.09;7248445;19;2004338;-59
2023/04/02 05:18:16;;;;;;;0.00;0.00;;;;;;;10.82;71.03;102077.56;7354911;19;20010;-60
2023/04/02 05:21:14;;;;;;;0.10;0.10;;;;;;;10.79;70.94;102078.44;7357130;19;20418;-60
2023/04/02 05:23:45;;;;;;;0.10;0.10;;;;;;;10.78;71.12;102089.75;7250786;19;2004560;-60
2023/04/02 05:26:18;;;;;;;0.00;0.00;;;;;;;10.78;71.02;102097.59;7351271;19;20014;-60
2023/04/02 05:29:09;;;;;;;0.00;0.00;;;;;;;10.78;71.08;102097.59;7357142;19;20086;-60
2023/04/02 05:31:34;;;;;;;0.10;0.10;;;;;;;10.78;71.41;102112.41;7253461;19;2004452;-60
2023/04/02 05:34:00;;;;;;;0.00;0.00;;;;;;;10.77;71.21;102105.47;7354105;19;20042;-60
2023/04/02 05:36:28;;;;;;;0.00;0.00;;;;;;;10.75;71.27;102102.84;7353085;19;20010;-59
2023/04/02 05:38:55;;;;;;;;;;;;;;;10.81;70.55;102107.19;7353835;19;20006;-60
2023/04/02 05:41:25;;;;;;;0.00;0.00;;;;;;;10.79;70.95;102114.16;7353028;19;19922;-60
2023/04/02 05:44:00;;;;;;;0.10;0.10;;;;;;;10.75;71.30;102117.66;7354719;19;20613;-60
2023/04/02 05:46:31;;;;;;;0.00;0.00;;;;;;;10.71;71.43;102111.56;7351979;19;20035;-59
2023/04/02 05:48:58;;;;;;;0.00;0.00;;;;;;;10.70;71.58;102120.28;7356565;19;20006;-59
2023/04/02 05:51:35;;;;;;;0.00;0.00;;;;;;;10.74;71.05;102132.44;7351264;19;20943;-59
2023/04/02 05:54:03;;;;;;;0.10;0.10;;;;;;;10.72;71.52;102128.09;7354284;19;20034;-60
2023/04/02 05:56:40;;;;;;;0.03;0.03;;;;;;;10.73;71.38;102124.63;7353222;19;20028;-60
2023/04/02 05:59:20;;;;;;;0.07;0.07;;;;;;;10.65;71.33;102122.88;7344978;19;20815;-59
2023/04/02 06:01:52;;;;;;;0.03;0.03;;;;;;;10.71;71.63;102135.06;7354128;19;20010;-60
2023/04/02 06:04:30;;;;;;;0.00;0.00;;;;;;;10.70;71.52;102132.47;7355355;19;20018;-60
2023/04/02 06:07:13;;;;;;;0.05;0.05;;;;;;;10.69;71.11;102139.41;7350156;19;20011;-60
2023/04/02 06:09:45;;;;;;;0.10;0.10;;;;;;;10.59;71.57;102119.38;7355491;19;20014;-60
2023/04/02 06:12:33;;;;;;;0.10;0.10;;;;;;;10.71;71.19;102152.50;7355741;19;20494;-60
2023/04/02 06:14:59;;;;;;;0.00;0.00;;;;;;;10.56;71.37;102133.34;7354702;19;20034;-60
2023/04/02 06:17:26;;;;;;;0.10;0.10;;;;;;;10.68;71.53;102155.97;7355403;19;20006;-60
2023/04/02 06:19:54;;;;;;;0.00;0.00;;;;;;;10.62;71.52;102148.13;7352122;19;20482;-60
2023/04/02 06:22:20;;;;;;;0.00;0.00;;;;;;;10.67;71.63;102166.41;7352488;19;20502;-60
2023/04/02 06:24:50;;;;;;;0.00;0.00;;;;;;;10.68;71.64;102163.81;7353884;19;20020;-60
2023/04/02 06:27:21;;;;;;;0.05;0.05;;;;;;;10.70;72.20;102171.66;7353598;19;20022;-60
2023/04/02 06:29:51;;;;;;;0.10;0.10;;;;;;;10.69;72.13;102170.75;7350031;19;20014;-60
2023/04/02 06:32:21;;;;;;;0.00;0.00;;;;;;;10.70;72.22;102176.88;7350599;19;20011;-60
2023/04/02 06:34:47;;;;;;;0.03;0.03;;;;;;;10.70;72.14;102172.53;7352472;19;20410;-60
2023/04/02 06:37:20;;;;;;;0.10;0.10;;;;;;;10.74;71.79;102178.59;7351399;19;20119;-60
2023/04/02 06:39:45;;;;;;;0.10;0.10;;;;;;;10.73;72.31;102182.09;7352384;19;20002;-60
2023/04/02 06:42:16;;;;;;;0.10;0.10;;;;;;;10.76;72.11;102187.34;7351933;19;20067;-60
2023/04/02 06:44:42;;;;;;;0.05;0.05;;;;;;;10.77;71.93;102191.69;7355274;19;20015;-60
2023/04/02 06:47:27;;;;;;;0.08;0.08;;;;;;;10.74;71.80;102184.69;7349792;19;23864;-60
2023/04/02 06:50:03;;;;;;;0.10;0.10;;;;;;;10.81;72.20;102196.91;7353717;19;20602;-60
2023/04/02 06:52:39;;;;;;;0.10;0.10;;;;;;;10.84;71.85;102206.47;7349948;19;20049;-60
2023/04/02 06:55:19;;;;;;;0.10;0.10;;;;;;;10.85;72.12;102211.72;7352065;19;20029;-60
2023/04/02 06:57:45;;;;;;;0.10;0.10;;;;;;;10.84;72.29;102211.72;7351162;19;20018;-60
2023/04/02 07:00:35;;;;;;;0.05;0.05;;;;;;;10.88;72.13;102210.84;7350310;19;20126;-59
2023/04/02 07:03:12;;;;;;;0.00;0.00;;;;;;;10.88;72.13;102219.56;7250393;19;2004344;-60
2023/04/02 07:05:37;;;;;;;0.00;0.00;;;;;;;10.82;72.27;102211.72;7350784;19;20070;-60
2023/04/02 07:08:03;;;;;;;0.10;0.10;;;;;;;10.90;72.40;102222.19;7354451;19;20033;-60
2023/04/02 07:10:28;;;;;;;0.00;0.00;;;;;;;10.92;72.06;102225.66;7348630;19;20371;-60
2023/04/02 07:12:54;;;;;;;0.00;0.00;;;;;;;10.95;72.26;102228.28;7351435;19;20032;-60
2023/04/02 07:15:20;;;;;;;0.10;0.10;;;;;;;10.86;72.37;102210.84;7351140;19;20446;-60
2023/04/02 07:17:45;;;;;;;0.10;0.10;;;;;;;10.84;72.13;102212.56;7351870;19;20463;-60
2023/04/02 07:20:37;;;;;;;0.10;0.10;;;;;;;11.04;72.17;102236.09;7354202;19;20018;-60
2023/04/02 07:23:03;;;;;;;0.08;0.08;;;;;;;11.03;72.16;102230.88;7352448;19;20019;-60
2023/04/02 07:25:29;;;;;;;0.00;0.00;;;;;;;11.06;72.04;102234.38;7346956;19;20038;-59
2023/04/02 07:27:55;;;;;;;0.00;0.00;;;;;;;11.08;72.01;102243.06;7349208;19;20002;-60
2023/04/02 07:30:20;;;;;;;0.10;0.10;;;;;;;11.10;72.16;102246.59;7353050;19;22488;-60
2023/04/02 07:32:47;;;;;;;0.05;0.05;;;;;;;11.08;72.14;102231.75;7352682;19;20010;-59
2023/04/02 07:35:12;;;;;;;0.10;0.10;;;;;;;11.16;71.76;102249.19;7352632;19;20034;-60
2023/04/02 07:37:38;;;;;;;0.00;0.00;;;;;;;11.14;72.02;102243.06;7350993;19;20037;-59
2023/04/02 07:40:21;;;;;;;0.10;0.10;;;;;;;11.25;71.92;102256.13;7353111;19;20029;-60
2023/04/02 07:42:47;;;;;;;0.03;0.03;;;;;;;11.26;72.14;102250.06;7346214;19;21591;-60
2023/04/02 07:45:12;;;;;;;0.00;0.00;;;;;;;11.30;71.75;102253.53;7352975;19;20019;-60
2023/04/02 07:47:38;;;;;;;0.00;0.00;;;;;;;11.32;71.71;102264.88;7351497;19;20093;-60
2023/04/02 07:50:04;;;;;;;0.10;0.10;;;;;;;11.35;72.09;102262.22;7350344;19;20047;-60
2023/04/02 07:52:30;;;;;;;0.00;0.00;;;;;;;11.38;72.05;102259.63;7352619;19;20007;-59
2023/04/02 07:54:55;;;;;;;0.00;0.00;;;;;;;11.35;72.00;102262.22;7349459;19;20017;-61
2023/04/02 07:57:21;;;;;;;0.10;0.10;;;;;;;11.43;71.96;102276.19;7351179;19;20007;-59
2023/04/02 07:59:47;;;;;;;0.05;0.05;;;;;;;11.46;71.94;102270.97;7351201;19;20006;-60
2023/04/02 08:02:22;;;;;;;0.00;0.00;;;;;;;11.54;71.66;102274.44;7352652;19;20354;-60
2023/04/02 08:04:50;;;;;;;0.03;0.03;;;;;;;11.49;72.01;102260.47;7350979;19;20010;-60
2023/04/02 08:07:17;;;;;;;0.10;0.10;;;;;;;11.60;71.80;102274.41;7324724;19;20721;-60
2023/04/02 08:09:43;;;;;;;0.00;0.00;;;;;;;11.51;71.87;102264.00;7347166;19;20013;-61
2023/04/02 08:12:12;;;;;;;0.00;0.00;;;;;;;11.63;72.12;102273.56;7348977;19;20102;-60
2023/04/02 08:14:37;;;;;;;0.10;0.10;;;;;;;11.75;71.61;102290.97;7348405;19;20021;-60
2023/04/02 08:17:03;;;;;;;0.00;0.00;;;;;;;11.79;71.86;102288.34;7355621;19;20822;-60
2023/04/02 08:19:29;;;;;;;0.10;0.10;;;;;;;11.74;71.70;102286.59;7356146;19;20010;-60
2023/04/02 08:21:55;;;;;;;0.00;0.00;;;;;;;11.88;71.89;102300.56;7357449;19;20018;-60
2023/04/02 08:24:21;;;;;;;0.00;0.00;;;;;;;11.91;72.00;102304.06;7353016;19;20034;-60
2023/04/02 08:26:48;;;;;;;0.10;0.10;;;;;;;11.95;71.81;102305.78;7353527;19;20582;-60
2023/04/02 08:29:14;;;;;;;0.10;0.10;;;;;;;11.83;71.63;102265.69;7353342;19;20002;-61
2023/04/02 08:31:39;;;;;;;0.10;0.10;;;;;;;12.02;71.83;102285.69;7353879;19;20034;-60
2023/04/02 08:34:05;;;;;;;0.10;0.10;;;;;;;11.94;71.65;102259.53;7353741;19;20011;-60
2023/04/02 08:36:36;;;;;;;0.00;0.00;;;;;;;12.13;71.91;102280.41;7349355;19;20007;-60
2023/04/02 08:39:03;;;;;;;0.10;0.10;;;;;;;12.13;71.82;102270.81;7357466;19;20010;-60
2023/04/02 08:41:36;;;;;;;0.10;0.10;;;;;;;12.13;72.00;102262.97;7334896;19;20033;-60
2023/04/02 08:44:23;;;;;;;0.00;0.00;;;;;;;12.27;71.57;102277.75;7351744;19;20010;-60
2023/04/02 08:47:00;;;;;;;0.08;0.08;;;;;;;12.35;71.99;102276.81;7353298;19;20027;-60
2023/04/02 08:49:34;;;;;;;0.00;0.00;;;;;;;12.44;72.01;102286.41;7355207;19;20011;-60
2023/04/02 08:52:00;;;;;;;0.10;0.10;;;;;;;12.53;71.83;102286.34;7351841;19;20018;-60
2023/04/02 08:54:36;;;;;;;0.10;0.10;;;;;;;12.71;71.41;102286.22;7355325;19;20019;-60
2023/04/02 08:57:20;;;;;;;0.00;0.00;;;;;;;12.88;71.41;102291.38;7353409;19;20019;-60
2023/04/02 08:59:46;;;;;;;0.10;0.10;;;;;;;12.98;71.29;102300.06;7356675;19;20014;-60
2023/04/02 09:02:36;;;;;;;0.03;0.03;;;;;;;13.16;71.26;102299.91;7355110;19;20003;-60
2023/04/02 09:05:06;;;;;;;0.03;0.03;;;;;;;13.22;70.80;102305.13;7242738;19;2004946;-59
2023/04/02 09:07:32;;;;;;;0.00;0.00;;;;;;;13.30;70.55;102293.72;7356615;19;20010;-60
2023/04/02 09:09:58;;;;;;;0.10;0.10;;;;;;;13.45;70.91;102302.31;7355691;19;21983;-61
2023/04/02 09:12:29;;;;;;;0.00;0.00;;;;;;;13.71;70.99;102312.56;7355709;19;20006;-60
2023/04/02 09:15:04;;;;;;;0.10;0.10;;;;;;;13.96;70.05;102320.19;7357984;19;20402;-60
2023/04/02 09:17:30;;;;;;;0.08;0.08;;;;;;;14.24;69.55;102310.22;7356031;19;20007;-60
2023/04/02 09:20:01;;;;;;;0.10;0.10;;;;;;;14.47;69.37;102309.94;7353479;19;20042;-60
2023/04/02 09:22:30;;;;;;;0.10;0.10;;;;;;;14.73;69.09;102305.22;7353613;19;20042;-60
2023/04/02 09:24:57;;;;;;;0.10;0.10;;;;;;;14.95;68.29;102300.53;7345883;19;20799;-61
2023/04/02 09:27:29;;;;;;;0.10;0.10;;;;;;;15.19;68.45;102308.91;7350403;19;20029;-60
2023/04/02 09:30:28;;;;;;;0.10;0.10;;;;;;;15.46;69.08;102312.84;7353918;19;20038;-60
2023/04/02 09:32:55;;;;;;;0.10;0.10;;;;;;;15.56;67.44;102317.06;7251434;19;2004397;-60
2023/04/02 09:35:27;;;;;;;0.10;0.10;;;;;;;15.85;68.05;102316.56;7352677;19;20025;-61
2023/04/02 09:38:31;;;;;;;0.00;0.00;;;;;;;16.20;68.58;102322.91;7353746;19;20015;-60
2023/04/02 09:41:17;;;;;;;0.10;0.10;;;;;;;16.58;66.81;102325.63;7249188;19;2004438;-61
2023/04/02 09:43:43;;;;;;;0.10;0.10;;;;;;;16.94;65.69;102330.16;7353201;19;20172;-61
2023/04/02 09:46:11;;;;;;;0.13;0.13;;;;;;;17.41;65.14;102333.41;7351110;19;20109;-61
2023/04/02 09:48:51;;;;;;;0.10;0.10;;;;;;;17.68;64.12;102322.13;7356874;19;20754;-61
2023/04/02 09:51:23;;;;;;;0.10;0.10;;;;;;;18.22;64.20;102337.41;7354141;19;20354;-61
2023/04/02 09:54:03;;;;;;;0.08;0.08;;;;;;;18.61;63.37;102342.44;7358351;19;20011;-61
2023/04/02 09:56:37;;;;;;;0.10;0.10;;;;;;;19.10;63.14;102346.22;7356656;19;20024;-60
2023/04/02 09:59:11;;;;;;;0.10;0.10;;;;;;;19.49;60.78;102346.72;7360121;19;20014;-61
2023/04/02 10:01:39;;;;;;;0.10;0.10;;;;;;;19.91;57.97;102344.38;7355346;19;20035;-61
2023/04/02 10:04:34;;;;;;;0.10;0.10;;;;;;;20.45;61.05;102343.28;7355688;19;20021;-61
2023/04/02 10:07:00;;;;;;;0.10;0.10;;;;;;;20.65;57.18;102350.53;7255709;19;2004125;-61
2023/04/02 10:09:34;;;;;;;0.10;0.10;;;;;;;21.07;58.49;102348.88;7353312;19;20326;-61
2023/04/02 10:12:02;;;;;;;0.10;0.10;;;;;;;21.17;56.11;102352.88;7354261;19;20033;-61
2023/04/02 10:14:36;;;;;;;0.10;0.10;;;;;;;21.34;56.67;102354.88;7355016;19;20813;-61
2023/04/02 10:17:19;;;;;;;0.10;0.10;;;;;;;21.34;57.92;102355.78;7353490;19;20920;-61
2023/04/02 10:19:51;;;;;;;0.00;0.00;;;;;;;20.87;56.19;102301.88;7351468;19;20006;-60
2023/04/02 10:22:21;;;;;;;0.08;0.08;;;;;;;20.84;57.14;102317.94;7356182;19;20015;-61
2023/04/02 10:24:48;;;;;;;0.10;0.10;;;;;;;20.65;57.21;102331.06;7355006;19;20017;-61
2023/04/02 10:27:32;;;;;;;0.10;0.10;;;;;;;20.77;59.99;102358.94;7351508;19;20485;-61
2023/04/02 10:30:50;;;;;;;0.00;0.00;;;;;;;20.75;60.16;102361.66;7354400;19;20422;-61
2023/04/02 10:33:26;;;;;;;0.10;0.10;;;;;;;20.71;58.13;102362.69;7254060;19;2004292;-61
2023/04/02 10:35:57;;;;;;;0.10;0.10;;;;;;;20.58;57.89;102361.41;7355008;19;20022;-60
2023/04/02 10:38:41;;;;;;;0.10;0.10;;;;;;;20.60;59.37;102363.09;7350617;19;20009;-61
2023/04/02 10:41:12;;;;;;;0.10;0.10;;;;;;;20.50;58.47;102369.69;7354319;19;20111;-61
2023/04/02 10:44:06;;;;;;;0.10;0.10;;;;;;;20.75;60.54;102372.28;7338937;19;20014;-61
2023/04/02 10:46:31;;;;;;;0.00;0.00;;;;;;;20.81;58.21;102371.16;7255306;19;2004371;-61
2023/04/02 10:49:17;;;;;;;0.10;0.10;;;;;;;21.07;59.57;102359.50;7356310;19;20010;-61
2023/04/02 10:51:58;;;;;;;0.00;0.00;;;;;;;21.31;58.99;102366.50;7352308;19;20010;-61
2023/04/02 10:54:50;;;;;;;0.10;0.10;;;;;;;21.65;59.95;102373.09;7357534;19;20002;-61
2023/04/02 10:57:39;;;;;;;0.10;0.10;;;;;;;21.93;60.21;102376.25;7254842;19;2004491;-61
2023/04/02 11:00:10;;;;;;;0.10;0.10;;;;;;;22.20;57.46;102368.00;7355765;19;19999;-61
2023/04/02 11:03:04;;;;;;;0.10;0.10;;;;;;;22.53;58.94;102371.81;7357144;19;20273;-60
2023/04/02 11:05:48;;;;;;;0.10;0.10;;;;;;;22.71;57.22;102364.78;7254436;19;2004420;-60
2023/04/02 11:08:16;;;;;;;0.10;0.10;;;;;;;22.64;53.14;102368.66;7353101;19;20047;-61
2023/04/02 11:10:48;;;;;;;0.10;0.10;;;;;;;22.72;54.54;102370.97;7356546;19;21774;-61
2023/04/02 11:13:21;;;;;;;0.10;0.10;;;;;;;22.72;55.38;102370.97;7357590;19;20010;-61
2023/04/02 11:15:47;;;;;;;0.10;0.10;;;;;;;22.71;53.19;102369.25;7356757;19;20404;-61
2023/04/02 11:18:34;;;;;;;0.10;0.10;;;;;;;23.02;56.27;102361.53;7355533;19;20007;-61
2023/04/02 11:21:07;;;;;;;0.10;0.10;;;;;;;23.16;53.55;102365.31;7253757;19;2004553;-61
2023/04/02 11:23:37;;;;;;;0.10;0.10;;;;;;;23.24;53.04;102357.81;7355604;19;21118;-61
2023/04/02 11:26:30;;;;;;;0.10;0.10;;;;;;;23.47;54.47;102360.19;7354367;19;20015;-61
2023/04/02 11:29:23;;;;;;;0.10;0.10;;;;;;;23.49;54.35;102360.97;7252765;19;2004160;-61
2023/04/02 11:32:10;;;;;;;0.10;0.10;;;;;;;23.40;49.43;102365.91;7252372;19;2004447;-61
2023/04/02 11:34:44;;;;;;;0.10;0.10;;;;;;;23.39;51.26;102358.84;7250137;19;2004180;-61
2023/04/02 11:37:35;;;;;;;0.10;0.10;;;;;;;23.23;54.22;102362.28;7357213;19;20462;-61
2023/04/02 11:40:10;;;;;;;0.10;0.10;;;;;;;23.07;51.41;102363.13;7256366;19;2004441;-60
2023/04/02 11:42:41;;;;;;;0.10;0.10;;;;;;;22.89;50.17;102363.06;7353363;19;20006;-61
2023/04/02 11:45:19;;;;;;;0.08;0.08;;;;;;;22.74;52.04;102364.63;7355419;19;20358;-61
2023/04/02 11:48:16;;;;;;;0.10;0.10;;;;;;;22.53;53.15;102366.50;7353799;19;20006;-61
2023/04/02 11:50:44;;;;;;;0.00;0.00;;;;;;;22.27;50.64;102370.34;7257584;19;2004321;-61
2023/04/02 11:53:10;;;;;;;0.10;0.10;;;;;;;22.07;52.05;102377.47;7360639;19;20015;-61
2023/04/02 11:55:40;;;;;;;0.10;0.10;;;;;;;21.89;50.50;102382.63;7361595;19;20003;-61
2023/04/02 11:58:27;;;;;;;0.08;0.08;;;;;;;21.77;53.34;102380.53;7361482;19;20006;-61